Terminal Aerodrome Forecast
Issued by NWS Hastings, NE

Home | Current Version | Previous Version | Text Only | Print | Product List | Glossary On
Versions: 1 2 3 4 5 6 7 8 9 10 11 12 13 14 15
000
FTUS43 KGID 202331
TAFGRI
TAF
KGRI 202331Z 2100/2124 22009KT P6SM SCT050 BKN100
     FM210900 32011KT P6SM SCT100 BKN250
     FM211500 36018G25KT P6SM BKN250=

USA.gov is the U.S. government's official web portal to all federal, state and local government web resources and services.